Time;durP1;ratioP1;P1;durP2;ratioP2;P2;SDS_P1;SDS_P2;PMS_P1;PMS_P2;Temp;Humidity;BMP_temperature;BMP_pressure;BME280_temperature;BME280_humidity;BME280_pressure;Samples;Min_cycle;Max_cycle;Signal;HPM_P1;HPM_P2
2021/07/02 00:00:49;;;;;;;31.97;18.30;;;15.80;99.90;;;;;;5053399;28;20310;-72
2021/07/02 00:03:16;;;;;;;29.27;17.80;;;15.80;99.90;;;;;;5053125;28;20203;-73
2021/07/02 00:05:44;;;;;;;31.67;18.93;;;15.80;99.90;;;;;;5054209;28;20209;-72
2021/07/02 00:08:11;;;;;;;26.97;17.70;;;15.80;99.90;;;;;;5052854;28;20203;-72
2021/07/02 00:10:38;;;;;;;33.43;18.20;;;15.90;99.90;;;;;;5053633;28;20286;-73
2021/07/02 00:13:05;;;;;;;39.77;17.57;;;15.90;99.90;;;;;;5052294;28;20580;-73
2021/07/02 00:15:32;;;;;;;30.33;17.07;;;15.80;99.90;;;;;;5054028;28;20206;-72
2021/07/02 00:17:59;;;;;;;36.43;17.50;;;15.90;99.90;;;;;;5050368;28;20306;-72
2021/07/02 00:20:26;;;;;;;29.70;17.57;;;15.90;99.90;;;;;;5053008;28;20293;-72
2021/07/02 00:22:54;;;;;;;30.20;16.60;;;15.90;99.90;;;;;;5046043;28;20203;-72
2021/07/02 00:25:21;;;;;;;33.27;17.60;;;15.90;99.90;;;;;;5053443;28;20590;-72
2021/07/02 00:27:48;;;;;;;29.90;18.10;;;15.90;99.90;;;;;;5046951;28;20638;-72
2021/07/02 00:30:15;;;;;;;30.63;16.70;;;15.90;99.90;;;;;;5044963;28;20298;-72
2021/07/02 00:32:42;;;;;;;30.40;17.07;;;15.90;99.90;;;;;;5050204;28;20382;-72
2021/07/02 00:35:10;;;;;;;35.13;18.67;;;15.90;99.90;;;;;;5053916;28;20215;-72
2021/07/02 00:37:37;;;;;;;28.77;17.37;;;15.90;99.90;;;;;;5049668;28;20290;-72
2021/07/02 00:40:06;;;;;;;35.13;18.63;;;15.90;99.90;;;;;;5052856;28;20205;-73
2021/07/02 00:42:34;;;;;;;31.17;17.57;;;15.90;99.90;;;;;;5049391;28;20223;-72
2021/07/02 00:45:01;;;;;;;27.70;16.93;;;15.90;99.90;;;;;;5053476;28;20217;-72
2021/07/02 00:47:28;;;;;;;32.13;17.37;;;15.90;99.90;;;;;;5051901;28;20203;-72
2021/07/02 00:49:55;;;;;;;35.47;17.73;;;15.90;99.90;;;;;;5052748;28;20203;-72
2021/07/02 00:52:22;;;;;;;31.00;16.90;;;15.90;99.90;;;;;;5049060;28;20218;-72
2021/07/02 00:54:52;;;;;;;32.67;17.90;;;16.00;99.90;;;;;;5052435;28;20207;-72
2021/07/02 00:57:23;;;;;;;26.23;16.20;;;15.90;99.90;;;;;;5051891;28;20237;-73
2021/07/02 00:59:50;;;;;;;27.20;14.60;;;15.90;99.90;;;;;;5052559;28;20574;-72
2021/07/02 01:02:18;;;;;;;28.03;16.47;;;15.90;99.90;;;;;;5052728;28;20229;-72
2021/07/02 01:04:44;;;;;;;23.93;14.80;;;15.90;99.90;;;;;;5051236;28;20497;-72
2021/07/02 01:07:12;;;;;;;27.37;14.97;;;15.90;99.90;;;;;;5052539;28;20203;-72
2021/07/02 01:09:41;;;;;;;29.27;16.37;;;15.90;99.90;;;;;;5052194;28;20270;-72
2021/07/02 01:12:11;;;;;;;26.93;14.10;;;15.90;99.90;;;;;;5052296;28;20195;-72
2021/07/02 01:14:39;;;;;;;29.77;15.57;;;16.00;99.90;;;;;;5052641;28;20210;-72
2021/07/02 01:17:06;;;;;;;26.20;16.03;;;16.00;99.90;;;;;;5052430;28;20293;-72
2021/07/02 01:19:33;;;;;;;26.93;14.90;;;15.90;99.90;;;;;;5052144;28;20646;-72
2021/07/02 01:22:02;;;;;;;27.80;15.27;;;16.00;99.90;;;;;;5049906;28;20699;-72
2021/07/02 01:24:29;;;;;;;27.20;15.67;;;15.90;99.90;;;;;;5052756;28;20294;-72
2021/07/02 01:26:56;;;;;;;26.47;14.67;;;15.90;99.90;;;;;;5042871;28;20229;-72
2021/07/02 01:29:23;;;;;;;25.50;14.23;;;15.90;99.90;;;;;;5051500;28;20572;-72
2021/07/02 01:31:50;;;;;;;29.93;15.37;;;15.90;99.90;;;;;;5045048;28;20525;-72
2021/07/02 01:34:17;;;;;;;23.50;14.63;;;15.90;99.90;;;;;;5052084;28;20207;-72
2021/07/02 01:36:44;;;;;;;22.80;14.17;;;15.90;99.90;;;;;;5045129;28;20393;-72
2021/07/02 01:49:17;;;;;;;25.80;14.23;;;15.90;99.90;;;;;;5049999;28;20198;-72
2021/07/02 01:51:45;;;;;;;24.53;14.17;;;15.90;99.90;;;;;;5051002;28;20665;-72
2021/07/02 01:54:12;;;;;;;26.73;15.07;;;16.00;99.90;;;;;;5052107;28;20195;-72
2021/07/02 01:56:47;;;;;;;24.27;13.77;;;15.90;99.90;;;;;;5051223;28;20570;-73
2021/07/02 01:59:14;;;;;;;24.30;12.87;;;15.90;99.90;;;;;;5052189;28;20211;-72
2021/07/02 02:01:41;;;;;;;22.47;13.33;;;15.90;99.90;;;;;;5050253;28;20681;-72
2021/07/02 02:04:08;;;;;;;22.13;12.77;;;15.90;99.90;;;;;;5050976;28;20206;-72
2021/07/02 02:06:37;;;;;;;22.23;12.63;;;15.90;99.90;;;;;;5043202;28;20211;-72
2021/07/02 02:09:06;;;;;;;24.30;12.80;;;15.90;99.90;;;;;;5041057;28;20502;-72
2021/07/02 02:11:33;;;;;;;22.60;11.80;;;15.90;99.90;;;;;;5043728;28;20671;-72
2021/07/02 02:14:01;;;;;;;23.00;12.23;;;15.90;99.90;;;;;;5040441;28;20214;-72
2021/07/02 02:16:28;;;;;;;24.27;12.37;;;15.90;99.90;;;;;;5045872;28;20195;-71
2021/07/02 02:18:55;;;;;;;22.83;12.80;;;15.90;99.90;;;;;;5048386;28;20206;-72
2021/07/02 02:21:21;;;;;;;22.10;11.67;;;16.00;99.90;;;;;;5046602;28;20222;-73
2021/07/02 02:23:49;;;;;;;20.47;12.50;;;16.00;99.90;;;;;;5050703;28;20282;-73
2021/07/02 02:26:16;;;;;;;25.73;13.40;;;16.00;99.90;;;;;;5045010;28;20206;-74
2021/07/02 02:28:43;;;;;;;21.43;13.20;;;15.90;99.90;;;;;;5043599;28;20207;-73
2021/07/02 02:31:10;;;;;;;24.37;14.00;;;16.00;99.90;;;;;;5044279;28;20237;-74
2021/07/02 02:33:37;;;;;;;25.77;14.40;;;15.90;99.90;;;;;;5048847;28;20301;-73
2021/07/02 02:36:04;;;;;;;25.93;13.73;;;15.90;99.90;;;;;;5046793;28;20558;-74
2021/07/02 02:38:32;;;;;;;26.67;15.07;;;15.90;99.90;;;;;;5049482;28;20209;-74
2021/07/02 02:41:00;;;;;;;21.87;13.63;;;16.00;99.90;;;;;;5050112;28;20207;-73
2021/07/02 02:43:27;;;;;;;29.17;16.37;;;15.90;99.90;;;;;;5049405;28;20649;-73
2021/07/02 02:45:54;;;;;;;27.23;15.93;;;15.90;99.90;;;;;;5037855;28;20204;-73
2021/07/02 02:48:21;;;;;;;27.50;15.03;;;15.90;99.90;;;;;;5049244;28;20210;-74
2021/07/02 02:50:48;;;;;;;27.47;15.37;;;15.90;99.90;;;;;;5049436;28;20202;-74
2021/07/02 02:53:15;;;;;;;25.77;15.07;;;16.00;99.90;;;;;;5049379;28;20199;-74
2021/07/02 02:55:41;;;;;;;28.17;15.13;;;16.00;99.90;;;;;;5050308;28;20199;-74
2021/07/02 02:58:10;;;;;;;23.97;14.87;;;15.90;99.90;;;;;;5050137;28;20213;-75
2021/07/02 03:00:38;;;;;;;26.13;14.50;;;15.90;99.90;;;;;;5047156;28;20696;-74
2021/07/02 03:03:05;;;;;;;26.40;15.17;;;15.90;99.90;;;;;;5050707;28;20226;-74
2021/07/02 03:05:31;;;;;;;26.90;15.77;;;15.90;99.90;;;;;;5048569;28;20199;-74
2021/07/02 03:07:58;;;;;;;25.03;14.83;;;15.90;99.90;;;;;;5049577;28;20640;-74
2021/07/02 03:10:25;;;;;;;24.97;15.53;;;15.90;99.90;;;;;;5049750;28;20197;-73
2021/07/02 03:12:52;;;;;;;27.07;16.47;;;15.90;99.90;;;;;;5050041;28;20191;-74
2021/07/02 03:15:20;;;;;;;24.73;15.80;;;16.00;99.90;;;;;;5036055;28;20204;-74
2021/07/02 03:17:47;;;;;;;28.23;14.93;;;15.90;99.90;;;;;;5050414;28;20214;-74
2021/07/02 03:20:14;;;;;;;29.43;15.83;;;15.90;99.90;;;;;;5040181;28;20207;-74
2021/07/02 03:22:42;;;;;;;26.90;16.30;;;15.90;99.90;;;;;;5034701;28;20713;-73
2021/07/02 03:25:12;;;;;;;31.20;16.40;;;15.90;99.90;;;;;;5044751;28;20620;-74
2021/07/02 03:27:39;;;;;;;25.67;16.10;;;15.90;99.90;;;;;;5054684;28;20213;-74
2021/07/02 03:30:08;;;;;;;28.70;16.43;;;16.00;99.90;;;;;;5054211;28;20574;-75
2021/07/02 03:32:37;;;;;;;26.30;15.90;;;15.90;99.90;;;;;;5054568;28;20206;-74
2021/07/02 03:35:05;;;;;;;32.57;15.93;;;16.00;99.90;;;;;;5053793;28;20214;-74
2021/07/02 03:37:32;;;;;;;25.77;14.93;;;15.90;99.90;;;;;;5045498;28;20203;-74
2021/07/02 03:39:58;;;;;;;27.77;14.37;;;15.90;99.90;;;;;;5052618;28;20205;-74
2021/07/02 03:42:25;;;;;;;28.57;15.40;;;15.90;99.90;;;;;;5053803;28;20218;-75
2021/07/02 03:44:52;;;;;;;30.40;16.30;;;15.90;99.90;;;;;;5053954;28;20195;-74
2021/07/02 03:47:19;;;;;;;32.67;16.53;;;16.00;99.90;;;;;;5053583;28;20210;-75
2021/07/02 03:49:47;;;;;;;29.63;15.50;;;15.90;99.90;;;;;;5053494;28;20203;-74
2021/07/02 03:52:14;;;;;;;23.63;14.57;;;15.90;99.90;;;;;;5054575;28;20209;-73
2021/07/02 03:54:44;;;;;;;27.23;15.27;;;15.90;99.90;;;;;;5053973;28;20747;-73
2021/07/02 03:57:11;;;;;;;22.05;14.07;;;15.90;99.90;;;;;;5098081;23;20230;-70
2021/07/02 03:59:39;;;;;;;28.27;16.07;;;15.90;99.90;;;;;;5053223;28;20195;-70
2021/07/02 04:02:06;;;;;;;30.40;16.33;;;15.80;99.90;;;;;;5041560;28;20219;-71
2021/07/02 04:04:34;;;;;;;29.73;18.13;;;15.80;99.90;;;;;;5048945;28;20203;-70
2021/07/02 04:07:03;;;;;;;28.80;15.77;;;15.80;99.90;;;;;;5041530;28;20204;-70
2021/07/02 04:09:30;;;;;;;27.67;16.87;;;15.80;99.90;;;;;;5051633;28;20317;-71
2021/07/02 04:11:56;;;;;;;34.87;17.60;;;15.90;99.90;;;;;;5051972;28;20206;-70
2021/07/02 04:14:23;;;;;;;33.20;17.70;;;15.90;99.90;;;;;;5048615;28;20578;-71
2021/07/02 04:16:51;;;;;;;31.57;17.60;;;15.90;99.90;;;;;;5042033;28;20215;-70
2021/07/02 04:19:18;;;;;;;32.27;17.97;;;15.80;99.90;;;;;;5038918;28;20204;-72
2021/07/02 04:21:46;;;;;;;34.97;18.47;;;15.90;99.90;;;;;;5034063;28;20704;-69
2021/07/02 04:24:14;;;;;;;31.53;16.90;;;15.80;99.90;;;;;;5047874;28;20203;-70
2021/07/02 04:26:41;;;;;;;29.60;16.33;;;15.80;99.90;;;;;;5051217;28;20218;-70
2021/07/02 04:29:08;;;;;;;34.03;16.87;;;15.90;99.90;;;;;;5052012;28;20203;-70
2021/07/02 04:31:35;;;;;;;35.63;17.80;;;15.90;99.90;;;;;;5052997;28;20202;-70
2021/07/02 04:34:02;;;;;;;30.57;17.20;;;16.00;99.90;;;;;;5052339;28;20687;-70
2021/07/02 04:36:29;;;;;;;29.20;16.27;;;16.00;99.90;;;;;;5053385;28;20199;-69
2021/07/02 04:38:57;;;;;;;32.07;17.10;;;16.00;99.90;;;;;;5053103;28;20206;-69
2021/07/02 04:41:26;;;;;;;32.33;16.47;;;16.00;99.90;;;;;;5052942;28;20203;-69
2021/07/02 04:43:53;;;;;;;29.03;16.50;;;16.10;99.90;;;;;;5052987;28;20215;-70
2021/07/02 04:46:19;;;;;;;36.37;17.90;;;16.10;99.90;;;;;;5052922;28;20289;-69
2021/07/02 04:48:46;;;;;;;29.73;16.47;;;16.20;99.90;;;;;;5053161;28;20206;-69
2021/07/02 04:51:13;;;;;;;29.15;15.93;;;16.10;99.90;;;;;;5052634;28;20479;-70
2021/07/02 04:53:42;;;;;;;28.47;15.40;;;16.10;99.90;;;;;;5053013;28;20206;-69
2021/07/02 04:56:12;;;;;;;31.03;16.17;;;16.10;99.90;;;;;;5052682;28;20203;-69
2021/07/02 04:58:40;;;;;;;31.83;17.13;;;16.10;99.90;;;;;;5053093;28;20210;-70
2021/07/02 05:01:07;;;;;;;29.80;16.33;;;16.10;99.90;;;;;;5052080;28;20191;-70
2021/07/02 05:03:34;;;;;;;34.53;16.77;;;16.10;99.90;;;;;;5053303;28;20325;-70
2021/07/02 05:06:03;;;;;;;32.63;16.93;;;16.20;99.90;;;;;;5052713;28;20570;-70
2021/07/02 05:08:29;;;;;;;31.87;16.20;;;16.20;99.90;;;;;;5052717;28;20265;-70
2021/07/02 05:10:56;;;;;;;30.47;17.37;;;16.20;99.90;;;;;;5051927;28;20203;-69
2021/07/02 05:13:23;;;;;;;30.57;15.93;;;16.20;99.90;;;;;;5052683;28;20199;-70
2021/07/02 05:15:52;;;;;;;30.43;16.23;;;16.20;99.90;;;;;;5039444;28;20230;-70
2021/07/02 05:18:19;;;;;;;28.07;17.10;;;16.20;99.90;;;;;;5035109;28;20201;-70
2021/07/02 05:20:46;;;;;;;28.70;16.38;;;16.10;99.90;;;;;;5049594;28;20202;-70
2021/07/02 05:23:13;;;;;;;30.73;16.53;;;16.00;99.90;;;;;;5030294;28;20227;-70
2021/07/02 05:25:40;;;;;;;26.60;16.23;;;16.00;99.90;;;;;;5030787;28;20207;-69
2021/07/02 05:28:07;;;;;;;29.80;16.70;;;16.00;99.90;;;;;;5048315;28;20202;-69
2021/07/02 05:30:34;;;;;;;33.00;18.23;;;16.00;99.90;;;;;;5044852;28;20205;-70
2021/07/02 05:33:02;;;;;;;31.67;18.47;;;16.10;99.90;;;;;;5035158;28;20200;-70
2021/07/02 05:35:29;;;;;;;28.37;16.77;;;16.10;99.90;;;;;;5046718;28;20297;-69
2021/07/02 05:37:56;;;;;;;25.57;15.90;;;16.10;99.90;;;;;;5049716;28;20203;-70
2021/07/02 05:40:23;;;;;;;28.00;16.00;;;16.10;99.90;;;;;;5048556;28;20206;-70
2021/07/02 05:42:50;;;;;;;29.00;15.60;;;16.00;99.90;;;;;;5033691;28;20681;-69
2021/07/02 05:45:17;;;;;;;28.33;17.30;;;16.00;99.90;;;;;;5029606;28;20207;-70
2021/07/02 05:47:48;;;;;;;31.00;16.10;;;16.10;99.90;;;;;;5030422;28;20208;-69
2021/07/02 05:50:17;;;;;;;27.00;15.80;;;16.00;99.90;;;;;;5029280;28;20211;-69
2021/07/02 05:52:44;;;;;;;25.63;16.53;;;16.00;99.90;;;;;;5045003;28;20199;-70
2021/07/02 05:55:12;;;;;;;32.07;16.37;;;16.00;99.90;;;;;;5049851;28;20210;-69
2021/07/02 05:57:39;;;;;;;29.20;16.13;;;15.90;99.90;;;;;;5046474;28;20678;-70
2021/07/02 06:00:07;;;;;;;30.93;17.67;;;16.00;99.90;;;;;;5048868;28;20544;-70
2021/07/02 06:02:34;;;;;;;30.30;20.07;;;16.00;99.90;;;;;;5049062;28;20219;-69
2021/07/02 06:05:01;;;;;;;26.17;15.87;;;16.00;99.90;;;;;;5049434;28;20203;-70
2021/07/02 06:07:29;;;;;;;27.70;16.70;;;16.00;99.90;;;;;;5049422;28;20207;-69
2021/07/02 06:09:56;;;;;;;31.57;16.13;;;15.90;99.90;;;;;;5048989;28;20646;-70
2021/07/02 06:12:23;;;;;;;27.13;15.20;;;16.00;99.90;;;;;;5035308;28;20200;-70
2021/07/02 06:14:50;;;;;;;27.30;16.47;;;16.00;99.90;;;;;;5029204;28;20217;-70
2021/07/02 06:17:17;;;;;;;24.33;14.50;;;16.00;99.90;;;;;;5042223;28;20207;-70
2021/07/02 06:19:43;;;;;;;26.83;15.57;;;16.00;99.90;;;;;;5049090;28;20653;-69
2021/07/02 06:22:10;;;;;;;24.47;15.47;;;16.00;99.90;;;;;;5037948;28;20204;-70
2021/07/02 06:24:38;;;;;;;22.73;14.50;;;16.00;99.90;;;;;;5029382;28;20211;-70
2021/07/02 06:27:06;;;;;;;29.87;15.93;;;16.00;99.90;;;;;;5037812;28;20217;-70
2021/07/02 06:29:33;;;;;;;26.10;15.03;;;16.10;99.90;;;;;;5046827;28;20217;-69
2021/07/02 06:31:59;;;;;;;26.37;14.30;;;16.10;99.90;;;;;;5047236;28;20195;-70
2021/07/02 06:34:26;;;;;;;25.07;15.07;;;16.10;99.90;;;;;;5048980;28;20199;-69
2021/07/02 06:36:53;;;;;;;24.03;14.53;;;16.20;99.90;;;;;;5047632;28;20207;-70
2021/07/02 06:39:20;;;;;;;25.03;14.93;;;16.20;99.90;;;;;;5048716;28;20585;-70
2021/07/02 06:41:48;;;;;;;22.50;14.10;;;16.20;99.90;;;;;;5034565;28;20208;-70
2021/07/02 06:44:15;;;;;;;24.47;13.83;;;16.20;99.90;;;;;;5029087;28;20724;-70
2021/07/02 06:46:42;;;;;;;29.63;14.20;;;16.10;99.90;;;;;;5042204;28;20241;-70
2021/07/02 06:49:09;;;;;;;24.27;13.33;;;16.20;99.90;;;;;;5048976;28;20203;-70
2021/07/02 06:51:37;;;;;;;23.47;12.93;;;16.20;99.90;;;;;;5039195;28;20203;-70
2021/07/02 06:54:04;;;;;;;22.60;13.17;;;16.20;99.90;;;;;;5032892;28;20203;-70
2021/07/02 06:56:32;;;;;;;23.53;12.80;;;16.20;99.90;;;;;;5052619;28;20635;-70
2021/07/02 06:59:00;;;;;;;23.33;13.17;;;16.10;99.90;;;;;;5052855;28;20213;-70
2021/07/02 07:01:27;;;;;;;21.20;12.90;;;16.10;99.90;;;;;;5052126;28;20202;-70
2021/07/02 07:03:53;;;;;;;23.10;13.30;;;16.20;99.90;;;;;;5047720;28;20598;-70
2021/07/02 07:06:20;;;;;;;24.70;14.27;;;16.20;99.90;;;;;;5052881;28;20216;-70
2021/07/02 07:08:47;;;;;;;23.00;14.00;;;16.20;99.90;;;;;;5052576;28;20203;-70
2021/07/02 07:11:14;;;;;;;23.30;14.27;;;16.20;99.90;;;;;;5052015;28;20404;-70
2021/07/02 07:13:41;;;;;;;22.17;12.20;;;16.20;99.90;;;;;;5053082;28;20676;-69
2021/07/02 07:16:10;;;;;;;20.00;13.23;;;16.30;99.90;;;;;;5052570;28;20310;-70
2021/07/02 07:18:37;;;;;;;25.17;14.27;;;16.30;99.90;;;;;;5038940;28;20203;-70
2021/07/02 07:21:04;;;;;;;24.63;13.37;;;16.30;99.90;;;;;;5032263;28;20668;-69
2021/07/02 07:23:31;;;;;;;27.13;13.60;;;16.30;99.90;;;;;;5034034;28;20306;-70
2021/07/02 07:25:58;;;;;;;21.47;12.20;;;16.20;99.90;;;;;;5032502;28;20214;-70
2021/07/02 07:28:24;;;;;;;23.93;12.90;;;16.20;99.90;;;;;;5032037;28;20204;-70
2021/07/02 07:30:51;;;;;;;21.50;12.68;;;16.20;99.90;;;;;;5037001;28;20195;-70
2021/07/02 07:33:19;;;;;;;22.97;13.27;;;16.20;99.90;;;;;;5035250;28;20571;-69
2021/07/02 07:35:48;;;;;;;24.50;12.80;;;16.30;99.90;;;;;;5040065;28;20198;-70
2021/07/02 07:38:15;;;;;;;22.30;12.37;;;16.20;99.90;;;;;;5046215;28;20243;-69
2021/07/02 07:40:42;;;;;;;20.53;12.47;;;16.20;99.90;;;;;;5033035;28;20396;-70
2021/07/02 07:43:09;;;;;;;20.93;12.67;;;16.30;99.90;;;;;;5037045;28;20542;-69
2021/07/02 07:45:36;;;;;;;22.87;12.03;;;16.30;99.90;;;;;;5041134;28;20207;-69
2021/07/02 07:48:03;;;;;;;21.63;12.40;;;16.40;99.90;;;;;;5052054;28;20729;-69
2021/07/02 07:50:41;;;;;;;23.97;12.07;;;16.40;99.90;;;;;;5051189;28;20207;-69
2021/07/02 07:53:09;;;;;;;22.63;12.60;;;16.50;99.90;;;;;;5051905;28;20210;-73
2021/07/02 07:55:36;;;;;;;21.83;12.07;;;16.30;99.90;;;;;;5049993;28;20219;-73
2021/07/02 07:58:03;;;;;;;19.83;10.80;;;16.40;99.90;;;;;;5049793;28;20203;-72
2021/07/02 08:00:30;;;;;;;20.30;10.73;;;16.60;99.90;;;;;;5051665;28;20229;-72
2021/07/02 08:02:59;;;;;;;18.77;10.27;;;16.60;99.90;;;;;;5050713;28;20250;-72
2021/07/02 08:05:26;;;;;;;18.40;11.73;;;16.70;99.90;;;;;;5051922;28;20239;-72
2021/07/02 08:07:54;;;;;;;20.47;11.27;;;16.80;99.90;;;;;;5051596;28;20206;-72
2021/07/02 08:10:22;;;;;;;19.05;10.65;;;16.80;99.90;;;;;;5051151;28;20665;-72
2021/07/02 08:12:52;;;;;;;18.50;10.93;;;16.90;99.90;;;;;;5051615;28;20202;-72
2021/07/02 08:15:19;;;;;;;20.58;10.50;;;17.00;99.90;;;;;;5051326;28;20210;-72
2021/07/02 08:17:46;;;;;;;18.75;11.15;;;17.10;99.90;;;;;;5051479;28;20211;-72
2021/07/02 08:20:14;;;;;;;15.97;9.00;;;17.20;99.90;;;;;;5051049;28;20207;-72
2021/07/02 08:22:41;;;;;;;14.37;8.87;;;17.30;99.90;;;;;;5051463;28;20199;-72
2021/07/02 08:25:10;;;;;;;17.00;9.02;;;17.40;99.90;;;;;;5051456;28;20688;-72
2021/07/02 08:30:18;;;;;;;16.33;9.02;;;17.80;99.90;;;;;;5047768;28;20195;-72
2021/07/02 08:32:45;;;;;;;12.93;8.45;;;17.90;99.90;;;;;;5045148;28;20684;-73
2021/07/02 08:35:12;;;;;;;15.23;8.80;;;17.80;99.90;;;;;;5050938;28;20206;-73
2021/07/02 08:37:39;;;;;;;14.77;8.90;;;17.70;99.90;;;;;;5051371;28;20652;-72
2021/07/02 08:40:09;;;;;;;17.02;9.35;;;17.90;99.90;;;;;;5050174;28;20210;-73
2021/07/02 08:42:36;;;;;;;17.25;9.63;;;17.80;99.90;;;;;;5051091;28;20933;-72
2021/07/02 08:45:03;;;;;;;18.15;9.57;;;17.70;99.90;;;;;;5050908;28;20586;-73
2021/07/02 08:47:30;;;;;;;16.70;9.40;;;17.80;99.90;;;;;;5051092;28;20203;-73
2021/07/02 08:49:58;;;;;;;18.80;9.20;;;17.80;99.90;;;;;;5050210;28;20207;-73
2021/07/02 08:52:25;;;;;;;17.13;8.82;;;17.90;99.90;;;;;;5049638;28;20209;-72
2021/07/02 08:54:52;;;;;;;14.85;9.43;;;18.00;99.90;;;;;;5050290;28;20574;-72
2021/07/02 08:57:20;;;;;;;20.08;10.10;;;18.20;99.90;;;;;;5040638;28;20216;-73
2021/07/02 08:59:47;;;;;;;15.65;9.60;;;18.30;99.90;;;;;;5030316;28;20211;-72
2021/07/02 09:02:28;;;;;;;16.10;9.45;;;18.10;99.90;;;;;;5031646;28;20203;-72
2021/07/02 09:04:54;;;;;;;16.67;9.60;;;18.20;99.90;;;;;;5046699;28;20565;-72
2021/07/02 09:07:21;;;;;;;16.95;8.95;;;18.10;99.90;;;;;;5046236;28;20200;-72
2021/07/02 09:09:56;;;;;;;13.95;8.82;;;18.20;99.90;;;;;;5037499;28;20199;-73
2021/07/02 09:12:27;;;;;;;16.70;9.50;;;18.20;99.90;;;;;;5047582;28;20202;-72
2021/07/02 09:15:06;;;;;;;22.45;8.85;;;18.10;99.90;;;;;;5048584;28;20199;-72
2021/07/02 09:17:35;;;;;;;16.90;9.88;;;18.20;99.90;;;;;;5044552;28;20250;-72
2021/07/02 09:20:05;;;;;;;13.15;8.15;;;18.30;99.90;;;;;;5035977;28;20205;-73
2021/07/02 09:22:40;;;;;;;15.60;8.75;;;18.20;99.90;;;;;;5050209;28;20280;-73
2021/07/02 09:25:10;;;;;;;13.45;7.88;;;18.10;99.90;;;;;;5043027;28;20758;-72
2021/07/02 09:27:43;;;;;;;15.23;8.32;;;18.10;99.90;;;;;;5043425;28;20210;-73
2021/07/02 09:30:12;;;;;;;12.32;8.10;;;18.10;99.90;;;;;;5049563;28;20620;-73
2021/07/02 09:32:40;;;;;;;19.58;10.95;;;18.30;99.90;;;;;;5043337;28;20200;-73
2021/07/02 09:35:09;;;;;;;16.08;9.80;;;18.20;99.90;;;;;;5032872;28;20640;-73
2021/07/02 09:37:38;;;;;;;18.25;8.77;;;18.40;99.90;;;;;;5036363;28;20203;-73
2021/07/02 09:40:15;;;;;;;19.85;9.68;;;18.60;99.90;;;;;;5049590;28;20288;-72
2021/07/02 09:42:43;;;;;;;14.05;8.48;;;18.60;99.90;;;;;;5049129;28;20209;-73
2021/07/02 09:55:52;;;;;;;13.27;7.40;;;18.70;99.90;;;;;;6254388;22;20304;-74
2021/07/02 09:58:22;;;;;;;13.27;7.25;;;19.60;99.90;;;;;;6159953;23;20168;-74
2021/07/02 10:00:50;;;;;;;11.80;6.72;;;19.60;99.90;;;;;;6159295;23;20267;-74
2021/07/02 10:03:18;;;;;;;14.13;7.10;;;19.70;99.90;;;;;;6159911;23;20207;-74
2021/07/02 10:05:53;;;;;;;13.20;7.60;;;19.80;99.90;;;;;;6159880;23;20243;-74
2021/07/02 10:08:22;;;;;;;17.50;8.38;;;20.00;99.90;;;;;;6159688;23;20256;-74
2021/07/02 10:10:52;;;;;;;16.08;8.23;;;19.90;99.90;;;;;;6159100;23;20168;-74
2021/07/02 10:13:22;;;;;;;14.35;8.88;;;19.90;99.90;;;;;;6159841;23;20183;-74
2021/07/02 10:15:50;;;;;;;13.65;8.02;;;19.90;99.90;;;;;;6160141;23;20164;-74
2021/07/02 10:18:18;;;;;;;14.57;8.80;;;19.80;99.90;;;;;;6159526;23;20160;-74
2021/07/02 10:20:46;;;;;;;16.33;8.93;;;20.00;99.90;;;;;;6158427;23;20164;-74
2021/07/02 10:23:21;;;;;;;11.40;7.78;;;20.00;99.90;;;;;;6159833;23;20210;-74
2021/07/02 10:25:52;;;;;;;11.38;6.72;;;20.40;99.90;;;;;;6160069;23;20467;-74
2021/07/02 10:28:21;;;;;;;13.13;7.03;;;20.40;99.90;;;;;;6159853;23;20587;-74
2021/07/02 10:30:49;;;;;;;10.57;6.28;;;20.20;99.90;;;;;;6158740;23;20176;-74
2021/07/02 10:33:19;;;;;;;9.00;5.72;;;20.50;99.90;;;;;;6159479;23;20247;-74
2021/07/02 10:35:52;;;;;;;8.32;5.72;;;21.00;99.90;;;;;;6159184;23;20164;-74
2021/07/02 10:38:19;;;;;;;11.48;5.82;;;20.70;99.90;;;;;;6157516;23;20176;-72
2021/07/02 10:40:46;;;;;;;12.18;6.90;;;20.50;99.90;;;;;;6158888;23;20484;-72
2021/07/02 10:43:17;;;;;;;9.73;6.30;;;20.10;99.90;;;;;;6159487;23;20630;-72
2021/07/02 10:46:11;;;;;;;10.60;6.72;;;19.90;99.90;;;;;;6159409;23;20168;-72
2021/07/02 10:48:59;;;;;;;13.32;7.57;;;19.70;99.90;;;;;;6159362;23;20164;-72
2021/07/02 10:51:53;;;;;;;15.20;7.70;;;19.60;99.90;;;;;;6158599;23;20200;-72
2021/07/02 10:54:37;;;;;;;11.57;6.50;;;19.70;99.90;;;;;;6159284;23;20543;-72
2021/07/02 10:57:12;;;;;;;9.70;6.43;;;19.80;99.90;;;;;;6152090;23;20188;-72
2021/07/02 11:00:15;;;;;;;9.68;6.47;;;19.50;99.90;;;;;;6151930;23;20249;-72
2021/07/02 11:02:44;;;;;;;10.30;6.05;;;19.60;99.90;;;;;;6153202;23;20161;-72
2021/07/02 11:05:33;;;;;;;12.15;6.85;;;19.90;99.90;;;;;;6152038;23;20287;-72
2021/07/02 11:08:00;;;;;;;9.25;6.20;;;19.70;99.90;;;;;;6152683;23;20591;-72
2021/07/02 11:10:48;;;;;;;11.77;6.50;;;20.00;99.90;;;;;;6151914;23;20558;-72
2021/07/02 11:13:14;;;;;;;7.32;5.55;;;19.90;99.90;;;;;;6152378;23;20511;-72
2021/07/02 11:16:08;;;;;;;14.18;8.65;;;20.00;99.90;;;;;;6152778;23;20233;-72
2021/07/02 11:18:44;;;;;;;13.55;8.02;;;19.90;99.90;;;;;;6152516;23;20176;-72
2021/07/02 11:21:17;;;;;;;8.98;5.97;;;19.70;99.90;;;;;;6152110;23;20164;-72
2021/07/02 11:23:44;;;;;;;10.23;6.78;;;19.80;99.90;;;;;;6152298;23;20235;-73
2021/07/02 11:26:14;;;;;;;10.30;6.60;;;20.00;99.90;;;;;;6152609;23;20526;-73
2021/07/02 11:28:51;;;;;;;8.98;6.40;;;20.10;99.90;;;;;;6152540;23;20165;-72
2021/07/02 11:31:19;;;;;;;10.65;7.03;;;20.00;99.90;;;;;;6152049;23;20168;-72
2021/07/02 11:33:47;;;;;;;12.40;6.45;;;20.00;99.90;;;;;;6152721;23;20195;-73
2021/07/02 11:36:20;;;;;;;10.27;6.82;;;20.10;99.90;;;;;;6152413;23;20231;-73
2021/07/02 11:38:52;;;;;;;10.90;6.50;;;20.30;99.90;;;;;;6149459;23;20191;-73
2021/07/02 11:41:25;;;;;;;11.60;6.45;;;20.40;99.90;;;;;;6151782;23;20161;-73
2021/07/02 11:43:52;;;;;;;13.23;7.38;;;20.50;99.90;;;;;;6152309;23;20192;-73
2021/07/02 11:46:21;;;;;;;14.80;7.35;;;20.30;99.90;;;;;;6152511;23;20165;-73
2021/07/02 11:48:49;;;;;;;13.23;7.63;;;20.20;99.90;;;;;;6152327;23;20169;-73
2021/07/02 11:51:19;;;;;;;12.88;7.38;;;20.00;99.90;;;;;;6151831;23;20161;-73
2021/07/02 11:53:48;;;;;;;10.23;6.82;;;20.30;99.90;;;;;;6151547;23;20160;-73
2021/07/02 11:56:17;;;;;;;12.32;7.10;;;20.40;99.90;;;;;;6151124;23;20376;-72
2021/07/02 11:58:47;;;;;;;9.57;6.55;;;20.90;99.90;;;;;;6152018;23;20171;-73
2021/07/02 12:01:16;;;;;;;11.02;6.60;;;21.20;99.90;;;;;;6150586;23;20165;-73
2021/07/02 12:03:50;;;;;;;12.73;7.30;;;21.50;99.90;;;;;;6151711;23;20169;-73
2021/07/02 12:06:24;;;;;;;13.90;7.32;;;21.70;99.90;;;;;;6152176;23;20483;-73
2021/07/02 12:08:53;;;;;;;11.57;6.68;;;21.50;99.90;;;;;;6124445;23;20179;-73
2021/07/02 12:11:33;;;;;;;10.90;7.07;;;21.30;99.90;;;;;;6151600;23;20167;-73
2021/07/02 12:14:01;;;;;;;13.07;7.47;;;21.30;99.90;;;;;;6151967;23;20187;-73
2021/07/02 12:16:30;;;;;;;11.25;6.95;;;21.50;99.90;;;;;;6151798;23;20161;-73
2021/07/02 12:18:58;;;;;;;13.38;7.13;;;21.60;99.90;;;;;;6151397;23;20165;-73
2021/07/02 12:21:31;;;;;;;10.73;7.13;;;21.20;99.90;;;;;;6151728;23;20161;-73
2021/07/02 12:24:02;;;;;;;9.40;6.85;;;21.20;99.90;;;;;;6151558;23;20200;-73
2021/07/02 12:26:30;;;;;;;11.23;6.78;;;21.40;99.90;;;;;;6151979;23;20161;-73
2021/07/02 12:29:11;;;;;;;11.48;7.78;;;21.60;99.90;;;;;;6151479;23;20169;-73
2021/07/02 12:31:43;;;;;;;11.20;7.78;;;21.70;99.90;;;;;;6150726;23;20160;-73
2021/07/02 12:34:15;;;;;;;14.57;10.15;;;21.50;99.90;;;;;;6151009;23;20182;-73
2021/07/02 12:36:58;;;;;;;11.60;8.27;;;21.30;99.90;;;;;;6152054;23;20168;-73
2021/07/02 12:39:29;;;;;;;12.10;8.52;;;21.60;99.90;;;;;;6149081;23;20176;-73
2021/07/02 12:41:58;;;;;;;12.05;8.18;;;21.80;99.90;;;;;;6151562;23;20526;-73
2021/07/02 12:44:27;;;;;;;11.93;9.40;;;21.60;99.90;;;;;;6150830;23;20560;-73
2021/07/02 12:46:54;;;;;;;19.77;12.93;;;22.10;99.90;;;;;;6152112;23;20475;-73
2021/07/02 12:49:26;;;;;;;14.80;9.38;;;21.50;99.90;;;;;;6150843;23;20171;-73
2021/07/02 12:54:57;;;;;;;16.00;10.57;;;21.10;99.90;;;;;;6151061;23;20602;-73
2021/07/02 12:57:33;;;;;;;18.50;11.40;;;21.00;99.90;;;;;;6151139;23;20192;-73
2021/07/02 13:00:02;;;;;;;17.48;11.18;;;20.60;99.90;;;;;;6150831;23;20615;-73
2021/07/02 13:02:34;;;;;;;17.75;11.57;;;20.80;99.90;;;;;;6151279;23;20247;-73
2021/07/02 13:05:07;;;;;;;19.42;11.82;;;20.90;99.90;;;;;;6150862;23;20195;-73